Time;durP1;ratioP1;P1;durP2;ratioP2;P2;SDS_P1;SDS_P2;PMS_P1;PMS_P2;Temp;Humidity;BMP_temperature;BMP_pressure;BME280_temperature;BME280_humidity;BME280_pressure;Samples;Min_cycle;Max_cycle;Signal;HPM_P1;HPM_P2
2022/09/25 00:00:45;;;;;;;6.38;5.07;;;13.50;99.90;;;;;;4994315;28;20054;-46
2022/09/25 00:03:12;;;;;;;7.05;6.13;;;13.50;99.90;;;;;;4993908;28;20033;-44
2022/09/25 00:05:39;;;;;;;6.07;5.35;;;13.50;99.90;;;;;;4994330;28;20053;-50
2022/09/25 00:08:05;;;;;;;6.70;6.05;;;13.50;99.90;;;;;;4994502;28;20427;-47
2022/09/25 00:10:32;;;;;;;5.90;5.25;;;13.50;99.90;;;;;;4994273;28;20053;-46
2022/09/25 00:12:58;;;;;;;5.57;5.07;;;13.50;99.90;;;;;;4993682;28;20502;-46
2022/09/25 00:15:23;;;;;;;6.63;5.93;;;13.50;99.90;;;;;;4994251;28;20027;-44
2022/09/25 00:17:49;;;;;;;7.70;6.90;;;13.50;99.90;;;;;;4994193;28;20057;-47
2022/09/25 00:20:19;;;;;;;10.32;6.63;;;13.50;99.90;;;;;;4994068;28;20057;-49
2022/09/25 00:22:46;;;;;;;7.15;6.45;;;13.50;99.90;;;;;;4994009;28;20490;-44
2022/09/25 00:25:14;;;;;;;8.23;6.47;;;13.50;99.90;;;;;;4994181;28;20030;-47
2022/09/25 00:27:41;;;;;;;8.70;7.18;;;13.50;99.90;;;;;;4993870;28;20096;-47
2022/09/25 00:30:08;;;;;;;9.23;8.30;;;13.50;99.90;;;;;;4993859;28;20219;-48
2022/09/25 00:32:34;;;;;;;12.52;7.45;;;13.50;99.90;;;;;;4993595;28;20034;-45
2022/09/25 00:35:00;;;;;;;8.13;7.32;;;13.50;99.90;;;;;;4993847;28;20548;-45
2022/09/25 00:37:27;;;;;;;10.07;6.85;;;13.50;99.90;;;;;;4993802;28;20508;-46
2022/09/25 00:39:53;;;;;;;9.25;8.30;;;13.50;99.90;;;;;;4992231;28;20030;-44
2022/09/25 00:42:20;;;;;;;9.15;8.23;;;13.50;99.90;;;;;;4993672;28;20548;-45
2022/09/25 00:44:50;;;;;;;12.52;9.02;;;13.50;99.90;;;;;;4992116;28;20065;-45
2022/09/25 00:47:19;;;;;;;10.63;9.05;;;13.50;99.90;;;;;;4993760;28;20390;-48
2022/09/25 00:49:46;;;;;;;10.88;8.38;;;13.50;99.90;;;;;;4993084;28;20078;-46
2022/09/25 00:52:13;;;;;;;11.60;8.73;;;13.50;99.90;;;;;;4992923;28;20023;-44
2022/09/25 00:54:48;;;;;;;10.38;8.73;;;13.50;99.90;;;;;;4993257;28;20205;-47
2022/09/25 00:57:16;;;;;;;;;;;13.50;99.90;;;;;;4993973;28;20430;-44
2022/09/25 00:59:44;;;;;;;11.50;9.82;;;13.50;99.90;;;;;;4993051;28;19913;-48
2022/09/25 01:02:18;;;;;;;15.13;11.07;;;13.50;99.90;;;;;;4992740;28;20449;-51
2022/09/25 01:04:45;;;;;;;13.77;12.13;;;13.50;99.90;;;;;;4993071;28;20482;-45
2022/09/25 01:07:11;;;;;;;12.00;10.80;;;13.50;99.90;;;;;;4993106;28;20501;-45
2022/09/25 01:09:37;;;;;;;17.90;11.98;;;13.50;99.90;;;;;;4993196;28;20022;-44
2022/09/25 01:12:03;;;;;;;15.30;11.48;;;13.50;99.90;;;;;;4992581;28;20478;-52
2022/09/25 01:14:32;;;;;;;16.85;12.02;;;13.50;99.90;;;;;;4992978;28;20548;-46
2022/09/25 01:17:25;;;;;;;13.57;11.73;;;13.50;99.90;;;;;;4993008;28;20401;-42
2022/09/25 01:20:02;;;;;;;15.32;12.77;;;13.50;99.90;;;;;;4964199;28;20043;-47
2022/09/25 01:22:54;;;;;;;13.90;11.35;;;13.50;99.90;;;;;;4992415;28;20036;-45
2022/09/25 01:25:59;;;;;;;16.48;12.82;;;13.40;99.90;;;;;;4992673;28;20434;-46
2022/09/25 01:28:37;;;;;;;16.63;11.88;;;13.40;99.90;;;;;;4992441;28;20049;-44
2022/09/25 01:31:15;;;;;;;15.18;12.95;;;13.40;99.90;;;;;;4991319;28;20027;-44
2022/09/25 01:33:50;;;;;;;16.75;11.65;;;13.40;99.90;;;;;;4992401;28;20108;-48
2022/09/25 01:36:26;;;;;;;16.10;13.15;;;13.40;99.90;;;;;;4992424;28;20070;-50
2022/09/25 01:39:01;;;;;;;17.20;13.63;;;13.40;99.90;;;;;;4992505;28;20026;-49
2022/09/25 01:41:38;;;;;;;22.90;14.85;;;13.40;99.90;;;;;;4992507;28;20421;-44
2022/09/25 01:44:17;;;;;;;14.95;12.77;;;13.50;99.90;;;;;;4992074;28;20045;-47
2022/09/25 01:46:52;;;;;;;18.23;14.30;;;13.50;99.90;;;;;;4992308;28;20121;-49
2022/09/25 01:49:25;;;;;;;17.23;14.52;;;13.50;99.90;;;;;;4992220;28;20026;-48
2022/09/25 01:51:53;;;;;;;33.22;22.23;;;13.50;99.90;;;;;;4992592;28;20079;-45
2022/09/25 01:54:44;;;;;;;40.35;29.38;;;13.50;99.90;;;;;;4992430;28;20038;-47
2022/09/25 01:57:14;;;;;;;75.38;52.35;;;13.50;99.90;;;;;;4991866;28;20042;-46
2022/09/25 01:59:48;;;;;;;25.38;19.17;;;13.50;99.90;;;;;;4992652;28;20045;-44
2022/09/25 02:02:18;;;;;;;20.85;16.33;;;13.50;99.90;;;;;;4992277;28;20445;-42
2022/09/25 02:04:56;;;;;;;29.73;20.27;;;13.40;99.90;;;;;;4992526;28;20503;-48
2022/09/25 02:07:33;;;;;;;23.15;18.75;;;13.50;99.90;;;;;;4992308;28;20027;-49
2022/09/25 02:10:07;;;;;;;29.45;18.05;;;13.50;99.90;;;;;;4992065;28;20015;-46
2022/09/25 02:12:43;;;;;;;24.70;17.70;;;13.50;99.90;;;;;;4991657;28;20038;-43
2022/09/25 02:15:25;;;;;;;23.35;17.88;;;13.50;99.90;;;;;;4991892;28;20049;-47
2022/09/25 02:20:58;;;;;;;18.60;15.63;;;13.50;99.90;;;;;;4992315;28;20108;-49
2022/09/25 02:23:47;;;;;;;22.17;17.58;;;13.50;99.90;;;;;;4991610;28;20371;-44
2022/09/25 02:26:24;;;;;;;20.25;16.45;;;13.50;99.90;;;;;;4992109;28;20023;-44
2022/09/25 02:28:50;;;;;;;24.05;17.83;;;13.50;99.90;;;;;;4991863;28;20019;-46
2022/09/25 02:31:16;;;;;;;25.98;18.60;;;13.50;99.90;;;;;;4992732;28;20022;-48
2022/09/25 02:33:42;;;;;;;23.60;18.73;;;13.50;99.90;;;;;;4995643;28;20045;-44
2022/09/25 02:36:17;;;;;;;20.77;17.40;;;13.50;99.90;;;;;;4995841;28;20031;-40
2022/09/25 02:38:43;;;;;;;26.73;20.52;;;13.50;99.90;;;;;;4995880;28;20050;-45
2022/09/25 02:41:27;;;;;;;22.85;18.65;;;13.50;99.90;;;;;;4995968;28;20054;-49
2022/09/25 02:44:33;;;;;;;27.92;19.20;;;13.60;99.90;;;;;;4996401;28;20493;-46
2022/09/25 02:47:35;;;;;;;30.83;22.25;;;13.50;99.90;;;;;;4995840;28;20034;-46
2022/09/25 02:50:14;;;;;;;31.23;20.75;;;13.50;99.90;;;;;;4995467;28;20046;-44
2022/09/25 02:52:51;;;;;;;25.35;19.20;;;13.50;99.90;;;;;;4995234;28;20081;-46
2022/09/25 02:55:21;;;;;;;29.33;19.08;;;13.50;99.90;;;;;;4995680;28;20041;-45
2022/09/25 02:57:57;;;;;;;25.60;18.25;;;13.60;99.90;;;;;;4995459;28;20050;-47
2022/09/25 03:00:23;;;;;;;26.70;20.15;;;13.50;99.90;;;;;;4995490;28;20018;-49
2022/09/25 03:02:53;;;;;;;31.17;21.05;;;13.50;99.90;;;;;;4994923;28;20034;-52
2022/09/25 03:05:20;;;;;;;27.33;19.80;;;13.60;99.90;;;;;;4995451;28;20025;-46
2022/09/25 03:10:32;;;;;;;30.23;21.75;;;13.50;99.90;;;;;;4995273;28;20033;-47
2022/09/25 03:13:22;;;;;;;27.60;22.20;;;13.40;99.90;;;;;;4994578;28;20077;-45
2022/09/25 03:15:54;;;;;;;30.77;22.15;;;13.40;99.90;;;;;;4995392;28;20026;-45
2022/09/25 03:18:20;;;;;;;29.98;21.30;;;13.40;99.90;;;;;;4995148;28;20114;-44
2022/09/25 03:20:46;;;;;;;28.42;20.48;;;13.40;99.90;;;;;;4995094;28;20022;-46
2022/09/25 03:23:12;;;;;;;35.87;21.83;;;13.40;99.90;;;;;;4994482;28;20093;-47
2022/09/25 03:25:38;;;;;;;28.80;20.88;;;13.40;99.90;;;;;;4994901;28;20023;-47
2022/09/25 03:28:10;;;;;;;26.15;20.10;;;13.40;99.90;;;;;;4994766;28;20039;-44
2022/09/25 03:30:39;;;;;;;27.55;20.35;;;13.40;99.90;;;;;;4994845;28;20027;-43
2022/09/25 03:33:06;;;;;;;25.35;20.40;;;13.40;99.90;;;;;;4994391;28;20015;-45
2022/09/25 03:35:32;;;;;;;26.95;19.70;;;13.40;99.90;;;;;;4994747;28;20023;-50
2022/09/25 03:37:57;;;;;;;25.42;18.38;;;13.40;99.90;;;;;;4994753;28;20037;-45
2022/09/25 03:40:23;;;;;;;28.23;21.27;;;13.40;99.90;;;;;;4994483;28;20023;-44
2022/09/25 03:42:48;;;;;;;29.15;21.17;;;13.40;99.90;;;;;;4993675;28;20034;-45
2022/09/25 03:45:14;;;;;;;27.27;20.38;;;13.40;99.90;;;;;;4994503;28;20026;-47
2022/09/25 03:47:40;;;;;;;26.20;19.05;;;13.40;99.90;;;;;;4994608;28;20076;-44
2022/09/25 03:50:07;;;;;;;26.23;19.27;;;13.40;99.90;;;;;;4993950;28;20027;-47
2022/09/25 03:52:33;;;;;;;26.92;20.10;;;13.40;99.90;;;;;;4994084;28;20214;-45
2022/09/25 03:54:58;;;;;;;24.90;18.42;;;13.40;99.90;;;;;;4994420;28;20070;-44
2022/09/25 03:57:24;;;;;;;24.10;18.48;;;13.40;99.90;;;;;;4994278;28;20042;-44
2022/09/25 03:59:50;;;;;;;25.02;20.15;;;13.40;99.90;;;;;;4994375;28;20072;-48
2022/09/25 04:02:16;;;;;;;24.23;18.63;;;13.40;99.90;;;;;;4993852;28;20500;-44
2022/09/25 04:04:42;;;;;;;24.50;18.88;;;13.40;99.90;;;;;;4992780;28;20477;-50
2022/09/25 04:07:07;;;;;;;24.90;19.35;;;13.40;99.90;;;;;;4994066;28;20035;-44
2022/09/25 04:09:33;;;;;;;26.98;19.55;;;13.40;99.90;;;;;;4994160;28;20109;-46
2022/09/25 04:11:58;;;;;;;28.83;18.38;;;13.50;99.90;;;;;;4993827;28;20041;-41
2022/09/25 04:14:24;;;;;;;23.05;18.10;;;13.50;99.90;;;;;;4994241;28;20026;-48
2022/09/25 04:16:50;;;;;;;22.48;18.25;;;13.50;99.90;;;;;;4993964;28;20398;-48
2022/09/25 04:19:16;;;;;;;24.30;18.75;;;13.50;99.90;;;;;;4993893;28;20031;-46
2022/09/25 04:21:41;;;;;;;24.10;18.30;;;13.50;99.90;;;;;;4993877;28;20039;-47
2022/09/25 04:26:52;;;;;;;30.85;20.65;;;13.50;99.90;;;;;;4993814;28;20084;-47
2022/09/25 04:29:20;;;;;;;30.13;21.08;;;13.50;99.90;;;;;;4993796;28;20101;-45
2022/09/25 04:33:44;;;;;;;24.48;18.17;;;13.50;99.90;;;;;;4993565;28;20018;-48
2022/09/25 04:34:31;;;;;;;31.73;21.35;;;13.50;99.90;;;;;;4993620;28;20034;-46
2022/09/25 04:36:56;;;;;;;27.55;20.08;;;13.50;99.90;;;;;;4993696;28;20505;-46
2022/09/25 04:39:22;;;;;;;28.38;19.10;;;13.50;99.90;;;;;;4993632;28;20033;-44
2022/09/25 04:41:47;;;;;;;24.05;19.00;;;13.50;99.90;;;;;;4993236;28;20105;-44
2022/09/25 04:44:12;;;;;;;28.40;19.63;;;13.50;99.90;;;;;;4993300;28;20074;-44
2022/09/25 04:46:38;;;;;;;22.13;17.10;;;13.60;99.90;;;;;;4993416;28;20018;-44
2022/09/25 04:49:03;;;;;;;24.42;19.13;;;13.50;99.90;;;;;;4993489;28;20056;-50
2022/09/25 04:51:29;;;;;;;22.58;17.23;;;13.60;99.90;;;;;;4993692;28;20019;-44
2022/09/25 04:53:55;;;;;;;21.90;17.45;;;13.60;99.90;;;;;;4992145;28;20073;-45
2022/09/25 04:56:21;;;;;;;21.25;16.85;;;13.60;99.90;;;;;;4993296;28;20030;-44
2022/09/25 04:58:48;;;;;;;24.98;17.40;;;13.50;99.90;;;;;;4993074;28;20034;-44
2022/09/25 05:01:15;;;;;;;25.55;18.48;;;13.60;99.90;;;;;;4993092;28;20089;-48
2022/09/25 05:03:41;;;;;;;24.52;18.75;;;13.60;99.90;;;;;;4992742;28;20073;-46
2022/09/25 05:06:08;;;;;;;24.73;18.75;;;13.50;99.90;;;;;;4993090;28;20041;-47
2022/09/25 05:08:33;;;;;;;29.80;21.23;;;13.50;99.90;;;;;;4991577;28;20029;-45
2022/09/25 05:10:59;;;;;;;26.20;19.02;;;13.50;99.90;;;;;;4992939;28;20026;-44
2022/09/25 05:13:24;;;;;;;29.67;21.65;;;13.50;99.90;;;;;;4993434;28;20109;-44
2022/09/25 05:15:50;;;;;;;27.50;20.52;;;13.50;99.90;;;;;;4992936;28;20394;-44
2022/09/25 05:18:21;;;;;;;33.83;23.80;;;13.50;99.90;;;;;;4992758;28;20497;-45
2022/09/25 05:20:48;;;;;;;26.63;20.02;;;13.50;99.90;;;;;;4992729;28;20030;-44
2022/09/25 05:23:15;;;;;;;24.45;19.63;;;13.50;99.90;;;;;;4992434;28;20101;-45
2022/09/25 05:25:40;;;;;;;29.08;20.02;;;13.50;99.90;;;;;;4992574;28;20030;-47
2022/09/25 05:28:06;;;;;;;26.35;19.83;;;13.50;99.90;;;;;;4992571;28;20022;-49
2022/09/25 05:30:33;;;;;;;26.35;19.65;;;13.50;99.90;;;;;;4992744;28;20033;-52
2022/09/25 05:32:59;;;;;;;26.38;19.95;;;13.50;99.90;;;;;;4992252;28;20018;-46
2022/09/25 05:35:26;;;;;;;29.65;20.88;;;13.50;99.90;;;;;;4992514;28;20482;-44
2022/09/25 05:37:52;;;;;;;24.77;18.35;;;13.50;99.90;;;;;;4992502;28;20482;-47
2022/09/25 05:40:19;;;;;;;24.05;18.80;;;13.50;99.90;;;;;;4992326;28;20073;-44
2022/09/25 05:42:46;;;;;;;25.75;20.10;;;13.40;99.90;;;;;;4992137;28;20030;-43
2022/09/25 05:45:13;;;;;;;25.83;19.65;;;13.40;99.90;;;;;;4992762;28;20635;-45
2022/09/25 05:47:39;;;;;;;27.20;20.45;;;13.40;99.90;;;;;;4992484;28;20426;-45
2022/09/25 05:50:07;;;;;;;26.73;18.85;;;13.30;99.90;;;;;;4992064;28;20031;-43
2022/09/25 05:52:32;;;;;;;23.25;17.90;;;13.30;99.90;;;;;;4992195;28;20429;-47
2022/09/25 05:54:58;;;;;;;24.38;18.60;;;13.30;99.90;;;;;;4991335;28;20022;-43
2022/09/25 05:57:23;;;;;;;21.65;18.02;;;13.30;99.90;;;;;;4992294;28;20105;-43
2022/09/25 05:59:49;;;;;;;20.58;17.42;;;13.30;99.90;;;;;;4992312;28;20022;-46
2022/09/25 06:02:15;;;;;;;22.63;17.85;;;13.30;99.90;;;;;;4991960;28;20034;-44
2022/09/25 06:04:41;;;;;;;22.90;17.40;;;13.30;99.90;;;;;;4990995;28;20026;-43
2022/09/25 06:07:08;;;;;;;22.15;16.73;;;13.30;99.90;;;;;;4992624;28;20035;-42
2022/09/25 06:09:35;;;;;;;20.88;16.58;;;13.30;99.90;;;;;;4992720;28;20081;-42
2022/09/25 06:12:01;;;;;;;21.65;16.90;;;13.30;99.90;;;;;;4992411;28;20034;-43
2022/09/25 06:14:26;;;;;;;17.20;14.85;;;13.30;99.90;;;;;;4992430;28;20418;-46
2022/09/25 06:16:52;;;;;;;21.98;16.48;;;13.40;99.90;;;;;;4992071;28;20044;-47
2022/09/25 06:19:17;;;;;;;17.70;15.68;;;13.40;99.90;;;;;;4990602;28;20023;-46
2022/09/25 06:21:43;;;;;;;24.08;17.75;;;13.40;99.90;;;;;;4991877;28;20046;-45
2022/09/25 06:24:12;;;;;;;16.92;15.13;;;13.40;99.90;;;;;;4991566;28;20085;-44
2022/09/25 06:26:38;;;;;;;18.70;15.93;;;13.50;99.90;;;;;;4992031;28;20026;-44
2022/09/25 06:29:06;;;;;;;21.02;18.30;;;13.40;99.90;;;;;;4991739;28;20034;-47
2022/09/25 06:31:32;;;;;;;19.40;16.20;;;13.50;99.90;;;;;;4991642;28;20058;-43
2022/09/25 06:33:58;;;;;;;19.48;16.35;;;13.50;99.90;;;;;;4991412;28;20410;-48
2022/09/25 06:36:23;;;;;;;22.10;16.00;;;13.50;99.90;;;;;;4991904;28;20026;-44
2022/09/25 06:38:53;;;;;;;20.52;16.98;;;13.50;99.90;;;;;;4991688;28;20030;-49
2022/09/25 06:41:19;;;;;;;22.70;17.58;;;13.50;99.90;;;;;;4991727;28;20026;-51
2022/09/25 06:43:50;;;;;;;26.70;18.90;;;13.50;99.90;;;;;;4991462;28;20042;-45
2022/09/25 06:46:18;;;;;;;21.20;16.55;;;13.50;99.90;;;;;;4992535;28;20018;-45
2022/09/25 06:48:53;;;;;;;21.60;16.90;;;13.60;99.90;;;;;;4991945;28;20023;-45
2022/09/25 06:51:18;;;;;;;20.63;16.05;;;13.50;99.90;;;;;;4991660;28;20022;-46
2022/09/25 06:53:44;;;;;;;19.98;15.52;;;13.60;99.90;;;;;;4991215;28;20041;-46
2022/09/25 06:56:09;;;;;;;18.40;14.70;;;13.60;99.90;;;;;;4991622;28;20113;-48
2022/09/25 06:58:35;;;;;;;20.70;16.15;;;13.60;99.90;;;;;;4991542;28;20450;-45
2022/09/25 07:01:00;;;;;;;20.38;16.15;;;13.60;99.90;;;;;;4991637;28;20038;-45
2022/09/25 07:03:44;;;;;;;18.50;13.73;;;13.60;99.90;;;;;;4991056;28;20026;-45
2022/09/25 07:06:16;;;;;;;16.50;13.45;;;13.60;99.90;;;;;;4991604;28;20101;-45
2022/09/25 07:08:42;;;;;;;14.88;13.27;;;13.60;99.90;;;;;;4991390;28;20025;-46
2022/09/25 07:11:13;;;;;;;16.20;13.60;;;13.60;99.90;;;;;;4991430;28;20049;-45
2022/09/25 07:13:39;;;;;;;15.52;13.10;;;13.60;99.90;;;;;;4991093;28;20045;-41
2022/09/25 07:16:07;;;;;;;13.20;11.80;;;13.60;99.90;;;;;;4991648;28;20030;-49
2022/09/25 07:18:33;;;;;;;13.90;12.07;;;13.60;99.90;;;;;;4994179;28;20030;-45
2022/09/25 07:21:07;;;;;;;15.10;11.85;;;13.60;99.90;;;;;;4995053;28;20394;-44
2022/09/25 07:23:33;;;;;;;12.88;11.25;;;13.60;99.90;;;;;;4994462;28;20089;-51
2022/09/25 07:26:12;;;;;;;13.77;11.10;;;13.60;99.90;;;;;;4995018;28;20022;-48
2022/09/25 07:28:39;;;;;;;14.73;11.93;;;13.60;99.90;;;;;;4994920;28;20026;-48
2022/09/25 07:31:32;;;;;;;14.65;11.27;;;13.60;99.90;;;;;;4994946;28;20487;-45
2022/09/25 07:34:01;;;;;;;13.73;11.55;;;13.60;99.90;;;;;;4992452;28;20149;-50
2022/09/25 07:36:27;;;;;;;15.90;12.30;;;13.70;99.90;;;;;;4994928;28;20109;-45
2022/09/25 07:38:53;;;;;;;13.90;11.20;;;13.70;99.90;;;;;;4994798;28;20084;-44
2022/09/25 07:41:21;;;;;;;16.25;14.43;;;13.70;99.90;;;;;;4995153;28;20508;-46
2022/09/25 07:43:57;;;;;;;16.80;14.30;;;13.80;99.90;;;;;;4994433;28;20026;-45
2022/09/25 07:46:23;;;;;;;17.25;14.43;;;13.80;99.90;;;;;;4994734;28;20408;-48
2022/09/25 07:48:50;;;;;;;23.63;16.08;;;13.80;99.90;;;;;;4994422;28;20038;-45
2022/09/25 07:51:16;;;;;;;21.27;15.98;;;13.80;99.90;;;;;;4994347;28;20026;-46
2022/09/25 07:53:42;;;;;;;21.20;16.50;;;13.70;99.90;;;;;;4994246;28;20045;-44
2022/09/25 07:56:10;;;;;;;21.77;16.98;;;13.80;99.90;;;;;;4994886;28;20503;-44
2022/09/25 07:58:36;;;;;;;22.17;17.65;;;13.80;99.90;;;;;;4994401;28;20031;-46
2022/09/25 08:01:04;;;;;;;23.05;17.40;;;13.80;99.90;;;;;;4994964;28;20557;-44
2022/09/25 08:03:30;;;;;;;27.42;20.17;;;13.80;99.90;;;;;;4993939;28;20034;-45
2022/09/25 08:05:58;;;;;;;26.58;19.50;;;13.80;99.90;;;;;;4994368;28;20034;-46
2022/09/25 08:08:24;;;;;;;24.15;20.02;;;13.90;99.90;;;;;;4994345;28;20505;-47
2022/09/25 08:10:50;;;;;;;28.05;21.15;;;13.80;99.90;;;;;;4992662;28;20026;-48
2022/09/25 08:13:19;;;;;;;28.40;20.00;;;13.80;99.90;;;;;;4993654;28;20030;-49
2022/09/25 08:15:45;;;;;;;26.67;18.92;;;13.80;99.90;;;;;;4994190;28;20482;-43
2022/09/25 08:18:10;;;;;;;29.80;19.48;;;13.80;99.90;;;;;;4994154;28;20076;-49
2022/09/25 08:20:38;;;;;;;30.10;21.10;;;13.80;99.90;;;;;;4993926;28;20030;-46
2022/09/25 08:23:05;;;;;;;29.30;20.65;;;13.80;99.90;;;;;;4994199;28;20027;-48
2022/09/25 08:25:30;;;;;;;29.80;21.48;;;13.80;99.90;;;;;;4994009;28;20026;-46
2022/09/25 08:27:56;;;;;;;33.28;22.35;;;13.80;99.90;;;;;;4993790;28;20059;-46
2022/09/25 08:30:21;;;;;;;31.13;22.52;;;13.80;99.90;;;;;;4993606;28;20027;-44
2022/09/25 08:32:47;;;;;;;30.27;22.63;;;13.90;99.90;;;;;;4993463;28;20026;-45
2022/09/25 08:35:13;;;;;;;30.17;21.02;;;14.00;99.90;;;;;;4993972;28;20053;-45
2022/09/25 08:37:40;;;;;;;28.10;20.45;;;14.00;99.90;;;;;;4993955;28;20030;-42
2022/09/25 08:40:15;;;;;;;30.98;22.80;;;14.00;99.90;;;;;;4993594;28;20026;-44
2022/09/25 08:42:41;;;;;;;31.55;23.25;;;14.00;99.90;;;;;;4993198;28;20053;-44
2022/09/25 08:50:57;;;;;;;32.05;20.65;;;13.90;99.90;;;;;;4994027;28;20026;-46
2022/09/25 08:53:24;;;;;;;26.55;20.00;;;13.90;99.90;;;;;;4994043;28;20370;-44
2022/09/25 08:58:41;;;;;;;30.15;20.90;;;13.90;99.90;;;;;;4993471;28;20113;-42
2022/09/25 09:01:28;;;;;;;27.08;19.98;;;13.90;99.90;;;;;;4993343;28;20141;-43
2022/09/25 09:04:05;;;;;;;27.67;21.25;;;13.80;99.90;;;;;;4992438;28;20042;-44
2022/09/25 09:06:33;;;;;;;30.00;21.67;;;13.90;99.90;;;;;;4993511;28;20081;-43
2022/09/25 09:09:18;;;;;;;30.23;22.40;;;14.00;99.90;;;;;;4992145;28;20629;-50
2022/09/25 09:11:48;;;;;;;31.63;21.70;;;14.00;99.90;;;;;;4993017;28;20042;-44
2022/09/25 09:14:20;;;;;;;29.17;21.35;;;13.90;99.90;;;;;;4993407;28;20041;-44
2022/09/25 09:17:02;;;;;;;28.63;20.83;;;14.00;99.90;;;;;;4993678;28;20030;-45
2022/09/25 09:19:27;;;;;;;30.88;21.85;;;14.00;99.90;;;;;;4993248;28;20515;-45
2022/09/25 09:22:17;;;;;;;28.88;21.42;;;14.10;99.90;;;;;;4992829;28;20034;-50
2022/09/25 09:25:12;;;;;;;28.92;20.88;;;14.10;99.90;;;;;;4993010;28;20022;-44
2022/09/25 09:27:56;;;;;;;27.40;20.95;;;14.20;99.90;;;;;;4992884;28;20021;-47
2022/09/25 09:30:29;;;;;;;27.50;20.52;;;14.30;99.90;;;;;;4993045;28;20065;-46
2022/09/25 09:33:19;;;;;;;29.40;19.38;;;14.20;99.90;;;;;;4992849;28;20026;-48
2022/09/25 09:35:58;;;;;;;28.23;21.65;;;14.30;99.90;;;;;;4993079;28;20022;-47
2022/09/25 09:38:27;;;;;;;28.20;19.95;;;14.30;99.90;;;;;;4992935;28;20041;-49
2022/09/25 09:41:16;;;;;;;23.50;18.60;;;14.50;99.90;;;;;;4992324;28;20030;-45
2022/09/25 09:44:35;;;;;;;27.48;19.08;;;14.50;99.90;;;;;;4992403;28;20088;-47
2022/09/25 09:47:32;;;;;;;23.75;18.98;;;14.50;99.90;;;;;;4932754;29;20055;-50
2022/09/25 09:50:05;;;;;;;24.10;17.40;;;14.60;99.90;;;;;;4992188;28;20050;-45
2022/09/25 09:52:37;;;;;;;22.52;17.80;;;14.70;99.90;;;;;;4992358;28;20069;-47
2022/09/25 09:55:35;;;;;;;19.45;15.85;;;14.70;99.90;;;;;;4992593;28;20030;-46
2022/09/25 09:58:09;;;;;;;20.40;15.95;;;14.60;99.90;;;;;;4988313;28;20066;-47
2022/09/25 10:00:37;;;;;;;25.02;17.35;;;14.60;99.90;;;;;;4992875;28;20121;-49
2022/09/25 10:03:10;;;;;;;23.15;19.13;;;14.50;99.90;;;;;;4992101;28;20490;-47
2022/09/25 10:05:41;;;;;;;21.20;17.63;;;14.50;99.90;;;;;;4992425;28;20026;-47
2022/09/25 10:08:08;;;;;;;23.83;17.33;;;14.40;99.90;;;;;;4992283;28;20027;-47
2022/09/25 10:10:40;;;;;;;19.70;16.30;;;14.30;99.90;;;;;;4992698;28;20029;-46
2022/09/25 10:13:16;;;;;;;22.38;16.05;;;14.30;99.90;;;;;;4992538;28;20030;-48
2022/09/25 10:16:02;;;;;;;22.55;16.75;;;14.30;99.90;;;;;;4991138;28;20500;-47
2022/09/25 10:18:48;;;;;;;35.88;27.67;;;14.40;99.90;;;;;;4992567;28;20086;-46
2022/09/25 10:21:21;;;;;;;23.92;16.15;;;14.50;99.90;;;;;;4992160;28;20030;-47
2022/09/25 10:23:52;;;;;;;17.27;14.88;;;14.50;99.90;;;;;;4991656;28;20042;-46
2022/09/25 10:26:36;;;;;;;23.20;15.82;;;14.50;99.90;;;;;;4992052;28;20030;-45
2022/09/25 10:29:25;;;;;;;21.88;16.80;;;14.60;99.90;;;;;;4992328;28;20413;-47
2022/09/25 10:32:01;;;;;;;22.33;18.15;;;14.60;99.90;;;;;;4992113;28;20034;-46
2022/09/25 10:34:28;;;;;;;21.20;17.33;;;14.70;99.90;;;;;;4992153;28;20188;-48
2022/09/25 10:36:53;;;;;;;65.88;38.75;;;14.60;99.90;;;;;;4992231;28;20026;-49
2022/09/25 10:39:33;;;;;;;25.38;18.85;;;14.50;99.90;;;;;;4992135;28;20421;-50
2022/09/25 10:42:00;;;;;;;21.67;16.25;;;14.50;99.90;;;;;;4991670;28;20054;-50
2022/09/25 10:44:37;;;;;;;21.77;16.13;;;14.30;99.90;;;;;;4992004;28;20023;-48
2022/09/25 10:50:21;;;;;;;23.42;16.20;;;14.30;99.90;;;;;;4991579;28;20041;-45
2022/09/25 10:52:52;;;;;;;23.98;16.98;;;14.20;99.90;;;;;;4993340;28;20034;-44
2022/09/25 10:55:27;;;;;;;22.67;16.92;;;14.20;99.90;;;;;;4995899;28;20061;-49
2022/09/25 10:58:12;;;;;;;20.65;15.85;;;14.10;99.90;;;;;;4996538;28;20407;-45
2022/09/25 11:00:53;;;;;;;21.75;16.70;;;14.10;99.90;;;;;;4995732;28;20518;-45
2022/09/25 11:03:25;;;;;;;22.90;17.35;;;14.10;99.90;;;;;;4995627;28;20030;-50
2022/09/25 11:06:04;;;;;;;19.90;16.70;;;14.10;99.90;;;;;;4995966;28;20034;-48
2022/09/25 11:08:33;;;;;;;21.13;16.27;;;14.10;99.90;;;;;;4995632;28;20022;-45
2022/09/25 11:11:01;;;;;;;19.67;15.60;;;14.00;99.90;;;;;;4995893;28;20080;-49
2022/09/25 11:13:39;;;;;;;20.23;15.52;;;14.10;99.90;;;;;;5017675;23;20591;-49
2022/09/25 11:16:09;;;;;;;22.17;16.85;;;14.00;99.90;;;;;;4995390;28;20034;-43
2022/09/25 11:18:48;;;;;;;20.58;16.27;;;14.00;99.90;;;;;;4995497;28;20034;-43
2022/09/25 11:21:16;;;;;;;19.27;15.68;;;14.00;99.90;;;;;;4996009;28;20033;-44
2022/09/25 11:23:54;;;;;;;19.35;15.77;;;14.00;99.90;;;;;;4994830;28;20085;-44
2022/09/25 11:26:26;;;;;;;23.13;16.70;;;14.00;99.90;;;;;;4995121;28;20022;-46
2022/09/25 11:29:11;;;;;;;19.50;14.35;;;13.90;99.90;;;;;;4994981;28;20026;-43
2022/09/25 11:32:00;;;;;;;18.02;14.52;;;13.90;99.90;;;;;;4995415;28;20563;-45
2022/09/25 11:35:01;;;;;;;20.67;15.65;;;13.80;99.90;;;;;;4995161;28;20402;-45
2022/09/25 11:38:02;;;;;;;20.25;14.77;;;13.70;99.90;;;;;;4995043;28;20023;-46
2022/09/25 11:43:59;;;;;;;19.33;15.25;;;13.70;99.90;;;;;;4994311;28;20092;-43
2022/09/25 11:46:47;;;;;;;19.20;15.77;;;13.70;99.90;;;;;;4994818;28;20018;-44
2022/09/25 11:49:23;;;;;;;23.95;15.30;;;13.70;99.90;;;;;;4994393;28;20104;-46
2022/09/25 11:52:02;;;;;;;;;;;13.80;99.90;;;;;;4993579;28;20113;-46
2022/09/25 11:54:42;;;;;;;23.33;16.85;;;13.80;99.90;;;;;;4994699;28;19913;-46
2022/09/25 11:57:37;;;;;;;25.15;15.43;;;13.80;99.90;;;;;;4994739;28;20441;-48
2022/09/25 12:00:19;;;;;;;18.50;13.60;;;13.80;99.90;;;;;;4984417;28;20049;-47
2022/09/25 12:03:18;;;;;;;16.60;13.55;;;13.80;99.90;;;;;;4993886;28;20018;-51
2022/09/25 12:06:13;;;;;;;15.13;11.15;;;13.80;99.90;;;;;;4994674;28;20038;-44
2022/09/25 12:08:47;;;;;;;11.77;9.82;;;13.70;99.90;;;;;;4994553;28;20030;-45
2022/09/25 12:11:19;;;;;;;11.03;9.47;;;13.70;99.90;;;;;;4994253;28;20022;-46
2022/09/25 12:13:48;;;;;;;11.27;9.45;;;13.60;99.90;;;;;;4993701;28;20277;-46
2022/09/25 12:16:47;;;;;;;10.85;7.97;;;13.60;99.90;;;;;;4994268;28;20425;-43
2022/09/25 12:19:30;;;;;;;9.45;7.30;;;13.60;99.90;;;;;;4994182;28;20023;-45
2022/09/25 12:22:08;;;;;;;7.55;6.40;;;13.60;99.90;;;;;;4993701;28;20065;-47
2022/09/25 12:24:40;;;;;;;6.90;6.20;;;13.50;99.90;;;;;;4994006;28;20439;-49
2022/09/25 12:27:21;;;;;;;10.57;6.93;;;13.50;99.90;;;;;;4994023;28;20026;-45
2022/09/25 12:29:58;;;;;;;6.50;5.80;;;13.50;99.90;;;;;;4993058;28;20468;-50
2022/09/25 12:32:56;;;;;;;6.53;3.53;;;13.50;99.90;;;;;;4993792;28;20050;-47
2022/09/25 12:35:41;;;;;;;11.00;4.10;;;13.40;99.90;;;;;;4993945;28;20197;-46
2022/09/25 12:38:40;;;;;;;8.25;3.63;;;13.40;99.90;;;;;;4993750;28;20061;-45
2022/09/25 12:41:21;;;;;;;5.07;2.83;;;13.40;99.90;;;;;;4994370;28;20077;-44
2022/09/25 12:43:52;;;;;;;9.05;3.55;;;13.30;99.90;;;;;;4993576;28;20046;-46
2022/09/25 12:46:25;;;;;;;6.50;3.90;;;13.30;99.90;;;;;;4994329;28;20029;-44
2022/09/25 12:49:11;;;;;;;4.97;3.42;;;13.30;99.90;;;;;;4993598;28;20018;-47
2022/09/25 12:51:49;;;;;;;6.18;3.63;;;13.30;99.90;;;;;;4993828;28;20105;-47
2022/09/25 12:54:31;;;;;;;6.43;3.67;;;13.40;99.90;;;;;;4993418;28;20034;-44
2022/09/25 12:57:22;;;;;;;6.20;3.35;;;13.30;99.90;;;;;;4993560;28;20520;-43
2022/09/25 12:59:55;;;;;;;6.53;3.60;;;13.40;99.90;;;;;;4993282;28;20034;-43
2022/09/25 13:02:35;;;;;;;8.68;3.55;;;13.40;99.90;;;;;;4993235;28;20026;-50
2022/09/25 13:05:39;;;;;;;8.13;3.65;;;13.40;99.90;;;;;;4992122;28;20068;-44
2022/09/25 13:08:28;;;;;;;6.72;4.35;;;13.50;99.90;;;;;;4943959;28;20088;-51
2022/09/25 13:10:53;;;;;;;10.82;3.67;;;13.40;99.90;;;;;;4993433;28;20085;-48
2022/09/25 13:13:24;;;;;;;5.88;3.30;;;13.30;99.90;;;;;;4992799;28;20117;-48
2022/09/25 13:16:00;;;;;;;12.27;4.07;;;13.40;99.90;;;;;;4992588;28;20037;-42
2022/09/25 13:18:28;;;;;;;9.90;2.80;;;13.50;99.90;;;;;;4991740;28;20031;-48
2022/09/25 13:20:55;;;;;;;3.15;2.75;;;13.40;99.90;;;;;;4993180;28;20394;-43